createdAt,value
2017-11-04T00:01:15.995Z,26.10
2017-11-04T00:03:44.293Z,25.97
2017-11-04T00:06:11.757Z,24.27
2017-11-04T00:08:39.287Z,23.40
2017-11-04T00:11:06.850Z,24.87
2017-11-04T00:13:34.361Z,23.30
2017-11-04T00:16:01.872Z,23.20
2017-11-04T00:18:29.336Z,24.67
2017-11-04T00:20:56.918Z,23.63
2017-11-04T00:23:24.393Z,22.80
2017-11-04T00:25:52.635Z,22.00
2017-11-04T00:28:20.131Z,23.00
2017-11-04T00:30:48.386Z,20.10
2017-11-04T00:33:15.821Z,21.80
2017-11-04T00:35:43.340Z,21.33
2017-11-04T00:38:10.769Z,21.37
2017-11-04T00:40:38.991Z,20.33
2017-11-04T00:43:06.457Z,22.13
2017-11-04T00:45:33.983Z,21.27
2017-11-04T00:48:01.444Z,24.27
2017-11-04T00:50:28.918Z,22.10
2017-11-04T00:52:56.383Z,21.60
2017-11-04T00:55:23.826Z,20.27
2017-11-04T00:57:51.293Z,22.47
2017-11-04T01:00:18.854Z,22.30
2017-11-04T01:02:47.194Z,21.83
2017-11-04T01:05:14.638Z,21.00
2017-11-04T01:07:42.100Z,22.40
2017-11-04T01:10:09.590Z,21.37
2017-11-04T01:12:37.047Z,19.10
2017-11-04T01:15:04.485Z,18.70
2017-11-04T01:17:31.953Z,18.83
2017-11-04T01:19:59.409Z,17.57
2017-11-04T01:22:26.865Z,18.47
2017-11-04T01:24:54.320Z,18.13
2017-11-04T01:27:21.886Z,17.83
2017-11-04T01:29:49.411Z,16.90
2017-11-04T01:32:16.865Z,18.77
2017-11-04T01:34:44.423Z,19.30
2017-11-04T01:37:11.873Z,15.97
2017-11-04T01:39:39.315Z,16.13
2017-11-04T01:42:06.770Z,16.87
2017-11-04T01:44:34.218Z,20.17
2017-11-04T01:47:02.434Z,18.30
2017-11-04T01:49:29.974Z,17.10
2017-11-04T01:51:57.413Z,18.40
2017-11-04T01:54:25.397Z,18.50
2017-11-04T01:56:52.887Z,16.30
2017-11-04T01:59:20.447Z,16.67
2017-11-04T02:01:47.892Z,16.47
2017-11-04T02:04:15.455Z,16.53
2017-11-04T02:06:43.009Z,15.10
2017-11-04T02:09:10.472Z,15.10
2017-11-04T02:11:37.935Z,16.10
2017-11-04T02:14:05.505Z,16.37
2017-11-04T02:16:33.110Z,16.00
2017-11-04T02:19:00.551Z,13.63
2017-11-04T02:21:28.053Z,14.40
2017-11-04T02:23:55.506Z,14.27
2017-11-04T02:26:23.075Z,15.20
2017-11-04T02:28:50.517Z,14.93
2017-11-04T02:31:17.974Z,14.30
2017-11-04T02:33:45.562Z,13.50
2017-11-04T02:36:13.805Z,15.07
2017-11-04T02:38:41.365Z,14.53
2017-11-04T02:41:08.801Z,12.57
2017-11-04T02:43:36.245Z,14.07
2017-11-04T02:46:03.725Z,13.47
2017-11-04T02:48:31.168Z,11.47
2017-11-04T02:50:58.613Z,13.07
2017-11-04T02:53:26.109Z,13.60
2017-11-04T02:55:53.562Z,12.20
2017-11-04T02:58:21.105Z,13.30
2017-11-04T03:00:48.555Z,13.27
2017-11-04T03:03:15.992Z,13.50
2017-11-04T03:05:43.469Z,12.60
2017-11-04T03:08:11.734Z,13.47
2017-11-04T03:10:39.184Z,12.27
2017-11-04T03:13:06.661Z,13.23
2017-11-04T03:15:34.217Z,13.60
2017-11-04T03:18:01.985Z,13.33
2017-11-04T03:20:29.440Z,12.07
2017-11-04T03:22:56.878Z,13.60
2017-11-04T03:25:25.093Z,12.83
2017-11-04T03:27:53.333Z,12.33
2017-11-04T03:30:20.868Z,14.03
2017-11-04T03:32:48.304Z,12.40
2017-11-04T03:35:15.800Z,12.33
2017-11-04T03:37:43.365Z,13.50
2017-11-04T03:40:10.816Z,12.67
2017-11-04T03:42:38.281Z,12.50
2017-11-04T03:45:05.738Z,13.17
2017-11-04T03:47:33.313Z,13.67
2017-11-04T03:50:00.818Z,12.27
2017-11-04T03:52:28.314Z,13.73
2017-11-04T03:54:55.815Z,12.87
2017-11-04T03:57:23.316Z,12.83
2017-11-04T03:59:50.793Z,12.53
2017-11-04T04:02:18.330Z,12.60
2017-11-04T04:04:45.774Z,14.90
2017-11-04T04:07:13.228Z,14.60
2017-11-04T04:09:40.703Z,14.00
2017-11-04T04:12:08.269Z,13.83
2017-11-04T04:14:35.713Z,12.73
2017-11-04T04:17:03.162Z,12.50
2017-11-04T04:19:31.030Z,12.60
2017-11-04T04:21:58.486Z,14.40
2017-11-04T04:24:26.563Z,13.40
2017-11-04T04:26:54.118Z,13.73
2017-11-04T04:29:21.562Z,14.03
2017-11-04T04:31:49.019Z,12.70
2017-11-04T04:34:16.458Z,13.70
2017-11-04T04:36:43.914Z,12.10
2017-11-04T04:39:11.383Z,13.10
2017-11-04T04:41:38.839Z,12.97
2017-11-04T04:44:06.282Z,12.50
2017-11-04T04:46:33.729Z,14.00
2017-11-04T04:49:01.183Z,13.23
2017-11-04T04:51:28.674Z,13.00
2017-11-04T04:53:56.231Z,13.53
2017-11-04T04:56:24.501Z,12.97
2017-11-04T04:58:51.937Z,12.30
2017-11-04T05:01:19.381Z,13.20
2017-11-04T05:03:46.838Z,12.77
2017-11-04T05:06:14.326Z,11.57
2017-11-04T05:08:41.936Z,11.70
2017-11-04T05:11:10.125Z,12.40
2017-11-04T05:13:37.584Z,11.67
2017-11-04T05:16:05.025Z,12.50
2017-11-04T05:18:32.477Z,12.50
2017-11-04T05:20:59.998Z,12.47
2017-11-04T05:23:27.453Z,13.43
2017-11-04T05:25:54.903Z,12.67
2017-11-04T05:28:22.359Z,11.47
2017-11-04T05:30:49.796Z,11.60
2017-11-04T05:33:17.257Z,11.53
2017-11-04T05:35:44.705Z,11.90
2017-11-04T05:38:12.161Z,11.00
2017-11-04T05:40:39.614Z,10.43
2017-11-04T05:43:07.182Z,10.87
2017-11-04T05:45:34.626Z,10.60
2017-11-04T05:48:02.180Z,10.53
2017-11-04T05:50:29.681Z,10.40
2017-11-04T05:52:57.902Z,9.77
2017-11-04T05:55:25.346Z,9.70
2017-11-04T05:57:52.837Z,9.97
2017-11-04T06:00:20.281Z,11.17
2017-11-04T06:02:47.750Z,11.10
2017-11-04T06:05:15.222Z,10.30
2017-11-04T06:07:42.658Z,11.40
2017-11-04T06:10:10.117Z,10.43
2017-11-04T06:12:37.641Z,10.67
2017-11-04T06:15:05.121Z,11.10
2017-11-04T06:17:32.570Z,11.80
2017-11-04T06:20:00.021Z,10.77
2017-11-04T06:22:27.464Z,11.00
2017-11-04T06:24:55.049Z,9.97
2017-11-04T06:27:22.605Z,9.90
2017-11-04T06:29:50.050Z,10.90
2017-11-04T06:32:17.634Z,10.93
2017-11-04T06:34:45.082Z,11.17
2017-11-04T06:37:12.537Z,11.83
2017-11-04T06:39:39.990Z,10.40
2017-11-04T06:42:07.453Z,10.33
2017-11-04T06:44:34.904Z,12.80
2017-11-04T06:47:02.357Z,10.60
2017-11-04T06:49:29.798Z,11.13
2017-11-04T06:51:57.361Z,9.53
2017-11-04T06:54:24.802Z,8.93
2017-11-04T06:56:52.258Z,9.57
2017-11-04T06:59:19.702Z,8.40
2017-11-04T07:01:47.182Z,8.73
2017-11-04T07:04:14.642Z,8.90
2017-11-04T07:06:42.206Z,8.73
2017-11-04T07:09:10.405Z,8.33
2017-11-04T07:11:38.745Z,9.70
2017-11-04T07:14:06.189Z,10.40
2017-11-04T07:16:33.634Z,9.23
2017-11-04T07:19:01.085Z,9.03
2017-11-04T07:21:28.618Z,9.70
2017-11-04T07:23:56.848Z,9.97
2017-11-04T07:26:24.433Z,9.47
2017-11-04T07:28:51.966Z,10.07
2017-11-04T07:31:19.522Z,9.03
2017-11-04T07:33:49.893Z,9.50
2017-11-04T07:36:17.354Z,10.20
2017-11-04T07:38:45.570Z,8.90
2017-11-04T07:41:13.009Z,9.20
2017-11-04T07:43:40.469Z,7.33
2017-11-04T07:46:07.913Z,8.47
2017-11-04T07:48:35.369Z,7.80
2017-11-04T07:51:02.845Z,7.50
2017-11-04T07:53:30.288Z,7.90
2017-11-04T07:55:57.762Z,7.00
2017-11-04T07:58:25.322Z,7.50
2017-11-04T08:00:52.762Z,7.23
2017-11-04T08:03:20.226Z,7.27
2017-11-04T08:05:47.729Z,7.13
2017-11-04T08:08:16.030Z,7.30
2017-11-04T08:10:43.518Z,7.40
2017-11-04T08:13:10.999Z,8.67
2017-11-04T08:15:38.433Z,7.13
2017-11-04T08:18:06.058Z,7.87
2017-11-04T08:20:33.506Z,7.20
2017-11-04T08:23:00.945Z,6.90
2017-11-04T08:25:29.157Z,7.80
2017-11-04T08:27:56.603Z,6.50
2017-11-04T08:30:24.052Z,7.73
2017-11-04T08:32:51.611Z,7.90
2017-11-04T08:35:19.049Z,7.10
2017-11-04T08:37:46.520Z,7.87
2017-11-04T08:40:14.039Z,6.30
2017-11-04T08:42:42.266Z,7.87
2017-11-04T08:45:09.717Z,7.57
2017-11-04T08:47:37.168Z,8.70
2017-11-04T08:50:04.617Z,7.67
2017-11-04T08:52:32.070Z,8.07
2017-11-04T08:55:00.693Z,7.60
2017-11-04T08:57:28.868Z,7.50
2017-11-04T08:59:56.319Z,7.80
2017-11-04T09:02:24.545Z,7.43
2017-11-04T09:04:51.985Z,6.73
2017-11-04T09:07:20.198Z,6.93
2017-11-04T09:09:47.705Z,5.87
2017-11-04T09:12:15.981Z,6.10
2017-11-04T09:14:43.489Z,5.20
2017-11-04T09:17:10.998Z,5.20
2017-11-04T09:19:39.203Z,6.17
2017-11-04T09:22:06.726Z,5.87
2017-11-04T09:24:34.966Z,4.80
2017-11-04T09:27:02.488Z,4.97
2017-11-04T09:29:30.151Z,4.70
2017-11-04T09:31:57.721Z,4.70
2017-11-04T09:34:25.229Z,4.93
2017-11-04T09:36:53.471Z,4.57
2017-11-04T09:39:21.030Z,4.53
2017-11-04T09:41:48.681Z,4.43
2017-11-04T09:44:16.130Z,3.90
2017-11-04T09:46:43.647Z,3.63
2017-11-04T09:49:11.853Z,3.67
2017-11-04T09:51:39.310Z,3.90
2017-11-04T09:54:06.836Z,4.23
2017-11-04T09:56:34.345Z,3.80
2017-11-04T09:59:01.829Z,4.03
2017-11-04T10:01:30.066Z,3.60
2017-11-04T10:03:57.516Z,4.27
2017-11-04T10:06:24.990Z,3.80
2017-11-04T10:08:52.545Z,3.57
2017-11-04T10:11:19.989Z,2.50
2017-11-04T10:13:47.439Z,3.30
2017-11-04T10:16:15.078Z,3.10
2017-11-04T10:18:42.771Z,3.30
2017-11-04T10:21:10.283Z,2.77
2017-11-04T10:23:37.867Z,3.30
2017-11-04T10:26:06.165Z,2.70
2017-11-04T10:28:33.861Z,2.80
2017-11-04T10:31:02.195Z,2.80
2017-11-04T10:33:29.758Z,3.07
2017-11-04T10:35:57.201Z,2.90
2017-11-04T10:38:24.713Z,2.80
2017-11-04T10:40:53.038Z,3.03
2017-11-04T10:43:20.493Z,2.87
2017-11-04T10:45:47.955Z,2.70
2017-11-04T10:48:15.409Z,3.20
2017-11-04T10:50:42.853Z,2.80
2017-11-04T10:53:10.318Z,2.77
2017-11-04T10:55:37.778Z,2.60
2017-11-04T10:58:05.342Z,2.80
2017-11-04T11:00:32.817Z,2.87
2017-11-04T11:03:00.310Z,2.90
2017-11-04T11:05:27.750Z,2.47
2017-11-04T11:07:56.047Z,2.93
2017-11-04T11:10:23.714Z,3.27
2017-11-04T11:12:51.263Z,2.50
2017-11-04T11:15:18.720Z,2.67
2017-11-04T11:17:46.205Z,2.30
2017-11-04T11:20:13.683Z,2.53
2017-11-04T11:22:41.220Z,3.37
2017-11-04T11:25:08.668Z,2.40
2017-11-04T11:27:36.125Z,2.50
2017-11-04T11:30:03.574Z,2.87
2017-11-04T11:32:31.021Z,2.50
2017-11-04T11:34:58.486Z,2.73
2017-11-04T11:37:25.954Z,2.70
2017-11-04T11:39:53.505Z,2.63
2017-11-04T11:42:20.957Z,2.40
2017-11-04T11:44:48.416Z,3.30
2017-11-04T11:47:16.345Z,2.80
2017-11-04T11:49:43.797Z,2.70
2017-11-04T11:52:11.294Z,2.80
2017-11-04T11:54:38.748Z,2.60
2017-11-04T11:57:06.206Z,2.80
2017-11-04T11:59:34.335Z,2.90
2017-11-04T12:02:01.807Z,2.80
2017-11-04T12:04:29.712Z,2.80
2017-11-04T12:06:57.162Z,2.60
2017-11-04T12:09:24.614Z,2.93
2017-11-04T12:11:52.079Z,2.70
2017-11-04T12:14:19.522Z,2.40
2017-11-04T12:16:47.094Z,3.00
2017-11-04T12:19:14.699Z,2.57
2017-11-04T12:21:42.138Z,2.50
2017-11-04T12:24:10.418Z,2.80
2017-11-04T12:26:38.626Z,2.70
2017-11-04T12:29:06.074Z,3.10
2017-11-04T12:31:33.629Z,3.33
2017-11-04T12:34:01.072Z,3.30
2017-11-04T12:36:28.537Z,4.20
2017-11-04T12:38:55.970Z,3.80
2017-11-04T12:41:23.432Z,3.87
2017-11-04T12:43:50.869Z,3.33
2017-11-04T12:46:19.141Z,4.07
2017-11-04T12:48:47.454Z,3.63
2017-11-04T12:51:14.929Z,4.70
2017-11-04T12:53:42.392Z,4.50
2017-11-04T12:56:09.904Z,4.10
2017-11-04T12:58:38.187Z,5.10
2017-11-04T13:01:06.317Z,5.10
2017-11-04T13:03:34.599Z,4.70
2017-11-04T13:06:02.165Z,5.00
2017-11-04T13:08:29.684Z,5.07
2017-11-04T13:10:57.189Z,5.13
2017-11-04T13:13:25.474Z,5.07
2017-11-04T13:15:52.986Z,4.80
2017-11-04T13:18:20.435Z,5.20
2017-11-04T13:20:47.936Z,5.00
2017-11-04T13:23:15.441Z,4.73
2017-11-04T13:25:43.016Z,5.40
2017-11-04T13:28:11.274Z,4.80
2017-11-04T13:30:38.725Z,5.00
2017-11-04T13:33:06.177Z,4.63
2017-11-04T13:35:33.626Z,5.47
2017-11-04T13:38:01.085Z,5.07
2017-11-04T13:40:28.532Z,4.90
2017-11-04T13:42:55.993Z,4.67
2017-11-04T13:45:23.444Z,5.50
2017-11-04T13:47:50.993Z,4.80
2017-11-04T13:50:18.500Z,5.07
2017-11-04T13:52:45.954Z,4.53
2017-11-04T13:55:13.494Z,4.77
2017-11-04T13:57:40.970Z,5.10
2017-11-04T14:00:08.415Z,5.30
2017-11-04T14:02:35.908Z,4.03
2017-11-04T14:05:03.370Z,4.70
2017-11-04T14:07:31.565Z,4.50
2017-11-04T14:09:59.154Z,4.60
2017-11-04T14:12:26.597Z,4.77
2017-11-04T14:14:54.050Z,4.50
2017-11-04T14:17:21.518Z,5.13
2017-11-04T14:19:49.102Z,5.00
2017-11-04T14:22:17.337Z,5.20
2017-11-04T14:24:47.185Z,4.50
2017-11-04T14:27:14.709Z,5.00
2017-11-04T14:29:42.217Z,4.57
2017-11-04T14:32:09.725Z,4.93
2017-11-04T14:34:37.238Z,5.70
2017-11-04T14:37:05.506Z,5.40
2017-11-04T14:39:33.068Z,4.83
2017-11-04T14:42:01.302Z,4.80
2017-11-04T14:44:28.983Z,4.43
2017-11-04T14:46:56.446Z,4.97
2017-11-04T14:49:24.654Z,4.80
2017-11-04T14:51:52.102Z,5.40
2017-11-04T14:54:19.586Z,5.70
2017-11-04T14:56:47.149Z,5.20
2017-11-04T14:59:14.608Z,4.00
2017-11-04T15:01:42.071Z,5.00
2017-11-04T15:04:09.523Z,4.80
2017-11-04T15:06:36.965Z,5.20
2017-11-04T15:09:04.522Z,5.17
2017-11-04T15:11:32.018Z,5.10
2017-11-04T15:14:00.224Z,4.43
2017-11-04T15:16:27.682Z,5.30
2017-11-04T15:18:55.126Z,5.10
2017-11-04T15:21:22.569Z,4.60
2017-11-04T15:23:50.014Z,5.03
2017-11-04T15:26:18.249Z,5.70
2017-11-04T15:28:45.757Z,5.40
2017-11-04T15:31:13.265Z,5.20
2017-11-04T15:33:40.714Z,5.20
2017-11-04T15:36:08.273Z,5.30
2017-11-04T15:38:35.717Z,4.93
2017-11-04T15:41:03.158Z,4.80
2017-11-04T15:43:30.610Z,5.30
2017-11-04T15:45:58.054Z,5.30
2017-11-04T15:48:25.637Z,5.73
2017-11-04T15:50:53.146Z,6.33
2017-11-04T15:53:21.550Z,6.47
2017-11-04T15:55:49.016Z,6.23
2017-11-04T15:58:16.523Z,5.80
2017-11-04T16:00:44.211Z,6.23
2017-11-04T16:03:12.470Z,7.53
2017-11-04T16:05:40.066Z,9.93
2017-11-04T16:08:07.537Z,9.60
2017-11-04T16:10:35.006Z,9.00
2017-11-04T16:13:02.569Z,9.57
2017-11-04T16:15:30.121Z,8.20
2017-11-04T16:17:57.585Z,8.80
2017-11-04T16:20:25.190Z,10.93
2017-11-04T16:22:52.658Z,10.30
2017-11-04T16:25:20.146Z,12.40
2017-11-04T16:27:48.421Z,11.70
2017-11-04T16:30:15.932Z,11.97
2017-11-04T16:32:44.272Z,11.10
2017-11-04T16:35:11.859Z,10.80
2017-11-04T16:37:40.206Z,11.53
2017-11-04T16:40:07.650Z,10.90
2017-11-04T16:42:35.105Z,10.87
2017-11-04T16:45:02.630Z,9.50
2017-11-04T16:47:30.099Z,11.30
2017-11-04T16:49:57.575Z,11.73
2017-11-04T16:52:25.019Z,11.43
2017-11-04T16:54:52.642Z,13.10
2017-11-04T16:57:21.355Z,11.90
2017-11-04T16:59:48.806Z,13.27
2017-11-04T17:02:16.265Z,13.57
2017-11-04T17:04:43.717Z,11.97
2017-11-04T17:07:11.198Z,12.50
2017-11-04T17:09:38.654Z,13.17
2017-11-04T17:12:06.732Z,13.10
2017-11-04T17:14:34.246Z,12.57
2017-11-04T17:17:01.691Z,12.33
2017-11-04T17:19:29.189Z,13.00
2017-11-04T17:21:56.650Z,13.57
2017-11-04T17:24:24.162Z,12.40
2017-11-04T17:26:51.678Z,13.70
2017-11-04T17:29:20.001Z,13.97
2017-11-04T17:31:47.459Z,12.40
2017-11-04T17:34:14.907Z,12.93
2017-11-04T17:36:42.473Z,11.80
2017-11-04T17:39:09.966Z,13.50
2017-11-04T17:41:37.425Z,12.40
2017-11-04T17:44:04.893Z,12.80
2017-11-04T17:46:32.336Z,12.63
2017-11-04T17:48:59.802Z,12.10
2017-11-04T17:51:27.261Z,11.97
2017-11-04T17:53:54.758Z,12.10
2017-11-04T17:56:22.215Z,11.50
2017-11-04T17:58:49.658Z,13.03
2017-11-04T18:01:17.210Z,12.47
2017-11-04T18:03:45.466Z,12.23
2017-11-04T18:06:13.702Z,12.47
2017-11-04T18:08:41.161Z,12.93
2017-11-04T18:11:08.641Z,13.50
2017-11-04T18:13:36.093Z,13.20
2017-11-04T18:16:03.542Z,13.37
2017-11-04T18:18:30.997Z,13.77
2017-11-04T18:20:58.499Z,13.10
2017-11-04T18:23:26.381Z,13.33
2017-11-04T18:25:53.892Z,15.50
2017-11-04T18:28:21.337Z,14.67
2017-11-04T18:30:48.781Z,12.30
2017-11-04T18:33:16.292Z,10.50
2017-11-04T18:35:43.728Z,11.07
2017-11-04T18:38:12.062Z,11.20
2017-11-04T18:40:39.512Z,12.73
2017-11-04T18:43:06.994Z,13.90
2017-11-04T18:45:34.497Z,16.13
2017-11-04T18:48:01.933Z,12.97
2017-11-04T18:50:29.432Z,12.47
2017-11-04T18:52:56.885Z,12.33
2017-11-04T18:55:24.404Z,11.80
2017-11-04T18:57:52.629Z,12.10
2017-11-04T19:00:20.082Z,14.83
2017-11-04T19:02:47.614Z,12.60
2017-11-04T19:05:15.149Z,14.30
2017-11-04T19:07:43.383Z,13.00
2017-11-04T19:10:10.833Z,13.50
2017-11-04T19:12:38.285Z,13.93
2017-11-04T19:15:06.547Z,12.93
2017-11-04T19:17:34.014Z,16.10
2017-11-04T19:20:01.457Z,12.57
2017-11-04T19:22:28.989Z,12.00
2017-11-04T19:24:57.096Z,11.50
2017-11-04T19:27:24.545Z,11.47
2017-11-04T19:29:52.050Z,13.07
2017-11-04T19:32:20.317Z,12.70
2017-11-04T19:34:48.522Z,12.43
2017-11-04T19:37:15.977Z,11.80
2017-11-04T19:39:43.426Z,11.10
2017-11-04T19:42:10.973Z,10.20
2017-11-04T19:44:39.259Z,9.67
2017-11-04T19:47:06.822Z,11.70
2017-11-04T19:49:34.343Z,10.77
2017-11-04T19:52:01.921Z,12.40
2017-11-04T19:54:30.136Z,12.60
2017-11-04T19:56:57.721Z,11.57
2017-11-04T19:59:25.923Z,11.47
2017-11-04T20:01:53.426Z,11.90
2017-11-04T20:04:20.882Z,12.40
2017-11-04T20:06:48.333Z,12.00
2017-11-04T20:09:15.818Z,11.50
2017-11-04T20:11:43.413Z,11.90
2017-11-04T20:14:10.881Z,10.63
2017-11-04T20:16:38.401Z,11.07
2017-11-04T20:19:05.925Z,11.33
2017-11-04T20:21:33.365Z,12.50
2017-11-04T20:24:00.869Z,13.60
2017-11-04T20:26:28.632Z,14.10
2017-11-04T20:28:56.250Z,13.00
2017-11-04T20:31:23.717Z,11.23
2017-11-04T20:33:51.241Z,12.27
2017-11-04T20:36:18.806Z,10.70
2017-11-04T20:38:46.429Z,10.90
2017-11-04T20:41:13.949Z,12.60
2017-11-04T20:43:41.479Z,11.97
2017-11-04T20:46:08.970Z,11.93
2017-11-04T20:48:36.397Z,11.50
2017-11-04T20:51:03.952Z,11.90
2017-11-04T20:53:31.481Z,11.17
2017-11-04T20:55:59.685Z,11.60
2017-11-04T20:58:27.198Z,11.73
2017-11-04T21:00:55.460Z,11.87
2017-11-04T21:03:23.171Z,12.00
2017-11-04T21:05:50.658Z,10.47
2017-11-04T21:08:18.197Z,11.13
2017-11-04T21:10:45.653Z,11.03
2017-11-04T21:13:13.121Z,10.73
2017-11-04T21:15:40.851Z,10.70
2017-11-04T21:18:08.338Z,12.90
2017-11-04T21:20:35.828Z,11.83
2017-11-04T21:23:03.405Z,11.73
2017-11-04T21:25:31.884Z,12.27
2017-11-04T21:28:00.130Z,12.00
2017-11-04T21:30:27.712Z,11.77
2017-11-04T21:32:55.950Z,12.80
2017-11-04T21:35:23.398Z,12.23
2017-11-04T21:37:50.856Z,12.40
2017-11-04T21:40:18.284Z,12.20
2017-11-04T21:42:45.832Z,11.70
2017-11-04T21:45:13.339Z,11.70
2017-11-04T21:47:40.782Z,12.33
2017-11-04T21:50:09.249Z,12.70
2017-11-04T21:52:36.908Z,11.70
2017-11-04T21:55:04.404Z,13.10
2017-11-04T21:57:31.840Z,11.57
2017-11-04T21:59:59.381Z,11.60
2017-11-04T22:02:27.548Z,12.07
2017-11-04T22:04:55.168Z,11.73
2017-11-04T22:07:22.724Z,11.80
2017-11-04T22:09:51.003Z,12.80
2017-11-04T22:12:18.480Z,12.03
2017-11-04T22:14:46.003Z,12.20
2017-11-04T22:17:14.284Z,11.80
2017-11-04T22:19:42.541Z,13.80
2017-11-04T22:22:10.064Z,11.63
2017-11-04T22:24:37.662Z,10.83
2017-11-04T22:27:05.926Z,11.70
2017-11-04T22:29:33.612Z,9.90
2017-11-04T22:32:01.188Z,10.70
2017-11-04T22:34:28.617Z,11.20
2017-11-04T22:36:56.073Z,10.20
2017-11-04T22:39:23.576Z,10.40
2017-11-04T22:41:51.133Z,10.43
2017-11-04T22:44:18.613Z,9.80
2017-11-04T22:46:46.197Z,10.50
2017-11-04T22:49:14.436Z,10.53
2017-11-04T22:51:41.877Z,10.30
2017-11-04T22:54:09.461Z,9.37
2017-11-04T22:56:36.956Z,10.17
2017-11-04T22:59:04.457Z,9.10
2017-11-04T23:01:31.923Z,10.10
2017-11-04T23:03:59.403Z,10.20
2017-11-04T23:06:27.647Z,10.33
2017-11-04T23:08:55.093Z,10.00
2017-11-04T23:11:22.650Z,9.33
2017-11-04T23:13:50.205Z,9.50
2017-11-04T23:16:17.653Z,10.20
2017-11-04T23:18:45.117Z,10.00
2017-11-04T23:21:12.561Z,9.57
2017-11-04T23:23:40.103Z,9.27
2017-11-04T23:26:07.600Z,9.10
2017-11-04T23:28:35.110Z,10.30
2017-11-04T23:31:03.613Z,9.70
2017-11-04T23:33:31.154Z,9.77
2017-11-04T23:35:58.687Z,10.73
2017-11-04T23:38:26.196Z,10.30
2017-11-04T23:40:53.646Z,10.13
2017-11-04T23:43:21.143Z,10.87
2017-11-04T23:45:48.708Z,8.87
2017-11-04T23:48:17.095Z,10.40
2017-11-04T23:50:45.358Z,10.33
2017-11-04T23:53:13.602Z,9.57
2017-11-04T23:55:41.869Z,9.30
2017-11-04T23:58:09.330Z,9.50
